Time;durP1;ratioP1;P1;durP2;ratioP2;P2;SDS_P1;SDS_P2;PMS_P1;PMS_P2;Temp;Humidity;BMP_temperature;BMP_pressure;BME280_temperature;BME280_humidity;BME280_pressure;Samples;Min_cycle;Max_cycle;Signal;HPM_P1;HPM_P2
2023/11/18 00:02:46;;;;;;;6.27;5.77;;;8.50;99.90;;;;;;10331146;28;20630;-78
2023/11/18 00:08:07;;;;;;;5.57;5.27;;;8.50;99.90;;;;;;10344806;28;20230;-79
2023/11/18 00:13:27;;;;;;;6.17;5.77;;;8.60;99.90;;;;;;10330603;28;20199;-80
2023/11/18 00:18:49;;;;;;;6.17;5.77;;;8.60;99.90;;;;;;10336539;28;20302;-80
2023/11/18 00:24:10;;;;;;;6.60;6.10;;;8.60;99.90;;;;;;10327990;28;20589;-80
2023/11/18 00:29:31;;;;;;;5.40;5.10;;;8.50;99.90;;;;;;10332359;28;20222;-79
2023/11/18 00:34:53;;;;;;;5.87;5.47;;;8.40;99.90;;;;;;10322200;28;20199;-79
2023/11/18 00:40:13;;;;;;;8.53;7.73;;;8.40;99.90;;;;;;10322018;28;20220;-79
2023/11/18 00:45:34;;;;;;;4.70;4.40;;;8.30;99.90;;;;;;10331256;28;20302;-79
2023/11/18 00:50:56;;;;;;;5.07;4.67;;;8.30;99.90;;;;;;10318257;28;20238;-79
2023/11/18 00:56:18;;;;;;;5.30;5.00;;;8.30;99.90;;;;;;10314015;28;20219;-81
2023/11/18 01:01:38;;;;;;;8.57;6.90;;;8.40;99.90;;;;;;10317776;28;20257;-80
2023/11/18 01:07:00;;;;;;;5.53;5.13;;;8.40;99.90;;;;;;10348916;23;20578;-76
2023/11/18 01:12:21;;;;;;;12.90;7.40;;;8.40;99.90;;;;;;10297689;28;20203;-76
2023/11/18 01:17:41;;;;;;;5.93;5.43;;;8.50;99.90;;;;;;10316350;28;20314;-76
2023/11/18 01:23:03;;;;;;;11.57;6.60;;;8.50;99.90;;;;;;10305785;28;20216;-76
2023/11/18 01:28:26;;;;;;;5.60;5.10;;;8.50;99.90;;;;;;10299721;28;20212;-76
2023/11/18 01:33:46;;;;;;;5.17;4.67;;;8.50;99.90;;;;;;10324063;28;20214;-76
2023/11/18 01:39:08;;;;;;;6.30;5.80;;;8.60;99.90;;;;;;10317736;28;20227;-76
2023/11/18 01:44:29;;;;;;;5.63;5.23;;;8.60;99.90;;;;;;10320476;28;20202;-75
2023/11/18 01:49:49;;;;;;;6.33;5.70;;;8.70;99.90;;;;;;10327000;28;20526;-76
2023/11/18 01:55:13;;;;;;;5.63;5.23;;;8.70;99.90;;;;;;10329761;28;20633;-76
2023/11/18 02:00:34;;;;;;;5.43;5.03;;;8.70;99.90;;;;;;10305028;28;20708;-76
2023/11/18 02:05:55;;;;;;;4.53;4.23;;;8.70;99.90;;;;;;10308820;28;20187;-76
2023/11/18 02:11:29;;;;;;;5.20;4.80;;;8.60;99.90;;;;;;10300518;28;20258;-76
2023/11/18 02:16:53;;;;;;;5.17;4.87;;;8.50;99.90;;;;;;10312300;28;20328;-76
2023/11/18 02:22:14;;;;;;;4.43;4.13;;;8.40;99.90;;;;;;10305731;28;20195;-76
2023/11/18 02:27:36;;;;;;;4.60;4.30;;;8.40;99.90;;;;;;10310459;28;20219;-76
2023/11/18 02:33:02;;;;;;;4.47;4.17;;;8.40;99.90;;;;;;10321900;28;20716;-76
2023/11/18 02:38:31;;;;;;;3.80;3.60;;;8.40;99.90;;;;;;10303609;28;20226;-76
2023/11/18 02:43:54;;;;;;;5.30;4.90;;;8.40;99.90;;;;;;10309587;28;20696;-74
2023/11/18 02:49:14;;;;;;;4.90;4.60;;;8.50;99.90;;;;;;10323342;28;20262;-75
2023/11/18 02:54:35;;;;;;;4.90;4.60;;;8.50;99.90;;;;;;10325504;28;20195;-76
2023/11/18 03:00:00;;;;;;;4.70;4.40;;;8.50;99.90;;;;;;10323800;28;20538;-76
2023/11/18 03:05:20;;;;;;;5.20;4.90;;;8.50;99.90;;;;;;10319295;28;20203;-76
2023/11/18 03:10:44;;;;;;;4.23;4.03;;;8.40;99.90;;;;;;10325561;28;20227;-76
2023/11/18 03:16:11;;;;;;;4.47;4.27;;;8.30;99.90;;;;;;10324568;28;20223;-75
2023/11/18 03:21:32;;;;;;;4.93;4.63;;;8.10;99.90;;;;;;10287674;28;20298;-77
2023/11/18 03:26:52;;;;;;;4.40;4.10;;;8.10;99.90;;;;;;10303989;28;20221;-76
2023/11/18 03:32:14;;;;;;;3.90;3.70;;;8.00;99.90;;;;;;10306793;28;20282;-76
2023/11/18 03:37:35;;;;;;;4.40;4.10;;;7.90;99.90;;;;;;10304895;28;20223;-76
2023/11/18 03:42:56;;;;;;;4.40;4.20;;;7.90;99.90;;;;;;10329506;28;20199;-76
2023/11/18 03:48:18;;;;;;;4.10;3.90;;;7.80;99.90;;;;;;10315602;28;20488;-76
2023/11/18 03:53:39;;;;;;;4.03;3.83;;;7.90;99.90;;;;;;10331644;28;20211;-75
2023/11/18 03:59:00;;;;;;;3.87;3.67;;;7.90;99.90;;;;;;10330878;28;20231;-76
2023/11/18 04:04:22;;;;;;;4.67;4.43;;;7.80;99.90;;;;;;10316501;28;20703;-77
2023/11/18 04:09:43;;;;;;;5.00;4.77;;;7.80;99.90;;;;;;10318065;28;20699;-76
2023/11/18 04:15:04;;;;;;;5.30;5.03;;;7.80;99.90;;;;;;10319512;28;20203;-76
2023/11/18 04:20:26;;;;;;;5.43;5.13;;;7.80;99.90;;;;;;10325418;28;20634;-76
2023/11/18 04:25:47;;;;;;;4.73;4.53;;;7.80;99.90;;;;;;10327431;28;20612;-76
2023/11/18 04:31:07;;;;;;;7.07;6.50;;;7.80;99.90;;;;;;10326158;28;20195;-76
2023/11/18 04:36:31;;;;;;;5.37;4.97;;;7.80;99.90;;;;;;10311789;28;20227;-76
2023/11/18 04:41:52;;;;;;;4.20;3.90;;;7.80;99.90;;;;;;10308052;28;20673;-76
2023/11/18 04:47:12;;;;;;;4.57;4.27;;;7.80;99.90;;;;;;10328387;28;20215;-76
2023/11/18 04:52:34;;;;;;;4.47;4.20;;;7.80;99.90;;;;;;10312912;28;20230;-76
2023/11/18 04:57:55;;;;;;;4.60;4.40;;;7.70;99.90;;;;;;10335789;28;20231;-76
2023/11/18 05:03:17;;;;;;;4.70;4.40;;;7.60;99.90;;;;;;10316185;28;20199;-75
2023/11/18 05:08:39;;;;;;;15.13;11.13;;;7.60;99.90;;;;;;10330155;28;20600;-76
2023/11/18 05:14:00;;;;;;;10.60;8.70;;;7.60;99.90;;;;;;10329411;28;20693;-76
2023/11/18 05:19:21;;;;;;;7.77;6.70;;;7.60;99.90;;;;;;10329371;28;20226;-76
2023/11/18 05:24:43;;;;;;;7.20;6.10;;;7.60;99.90;;;;;;10315529;28;20198;-76
2023/11/18 05:30:05;;;;;;;5.10;4.80;;;7.50;99.90;;;;;;10322136;28;20219;-76
2023/11/18 05:35:28;;;;;;;11.33;8.47;;;7.50;99.90;;;;;;10327595;28;20203;-76
2023/11/18 05:40:55;;;;;;;6.23;5.70;;;7.50;99.90;;;;;;10324701;28;20228;-76
2023/11/18 05:46:20;;;;;;;4.90;4.60;;;7.50;99.90;;;;;;10317708;28;20669;-76
2023/11/18 05:51:41;;;;;;;5.00;4.70;;;7.50;99.90;;;;;;10327504;28;20203;-76
2023/11/18 05:57:03;;;;;;;5.33;4.93;;;7.60;99.90;;;;;;10325829;28;20227;-76
2023/11/18 06:02:24;;;;;;;5.03;4.73;;;7.70;99.90;;;;;;10327122;28;20294;-76
2023/11/18 06:07:47;;;;;;;5.43;5.03;;;7.70;99.90;;;;;;10326233;28;20227;-76
2023/11/18 06:13:09;;;;;;;5.60;5.17;;;7.70;99.90;;;;;;10328413;28;20230;-75
2023/11/18 06:18:29;;;;;;;5.07;4.67;;;7.60;99.90;;;;;;10327403;28;20223;-76
2023/11/18 06:23:50;;;;;;;5.60;5.20;;;7.60;99.90;;;;;;10318716;28;20698;-75
2023/11/18 06:29:12;;;;;;;5.10;4.70;;;7.50;99.90;;;;;;10322084;28;20223;-76
2023/11/18 06:34:33;;;;;;;5.87;5.40;;;7.40;99.90;;;;;;10320416;28;20583;-76
2023/11/18 06:39:53;;;;;;;5.40;5.00;;;7.30;99.90;;;;;;10322556;28;20234;-76
2023/11/18 06:45:16;;;;;;;5.60;5.20;;;7.30;99.90;;;;;;10322319;28;20570;-76
2023/11/18 06:50:39;;;;;;;5.50;5.17;;;7.20;99.90;;;;;;10324280;28;20605;-75
2023/11/18 06:56:00;;;;;;;6.73;6.07;;;7.20;99.90;;;;;;10321657;28;20211;-76
2023/11/18 07:01:22;;;;;;;7.40;6.70;;;7.20;99.90;;;;;;10321628;28;20202;-76
2023/11/18 07:06:43;;;;;;;7.23;6.73;;;7.10;99.90;;;;;;10323917;28;20223;-76
2023/11/18 07:12:04;;;;;;;7.97;7.23;;;7.20;99.90;;;;;;10353438;23;20231;-75
2023/11/18 07:17:26;;;;;;;7.90;7.30;;;7.20;99.90;;;;;;10323270;28;20215;-76
2023/11/18 07:22:46;;;;;;;8.33;7.63;;;7.30;99.90;;;;;;10331902;28;20673;-76
2023/11/18 07:28:08;;;;;;;8.37;7.67;;;7.40;99.90;;;;;;10323058;28;20207;-76
2023/11/18 07:33:31;;;;;;;9.60;8.90;;;7.50;99.90;;;;;;10323984;28;20203;-76
2023/11/18 07:38:51;;;;;;;9.83;8.93;;;7.60;99.90;;;;;;10325106;28;20222;-76
2023/11/18 07:44:12;;;;;;;8.90;8.10;;;7.80;99.90;;;;;;10328730;28;20207;-76
2023/11/18 07:49:35;;;;;;;8.03;7.33;;;7.80;99.90;;;;;;10327034;28;20219;-76
2023/11/18 07:54:55;;;;;;;7.80;7.10;;;7.80;99.90;;;;;;10329561;28;20601;-77
2023/11/18 08:00:16;;;;;;;9.47;6.43;;;8.00;99.90;;;;;;10331069;28;20223;-76
2023/11/18 08:05:39;;;;;;;6.03;5.53;;;8.00;99.90;;;;;;10334041;28;20669;-77
2023/11/18 08:10:59;;;;;;;6.60;6.00;;;8.10;99.90;;;;;;10328194;28;20227;-77
2023/11/18 08:16:22;;;;;;;9.40;6.00;;;8.20;99.90;;;;;;10349584;28;20232;-76
2023/11/18 08:21:44;;;;;;;5.20;4.80;;;8.30;99.90;;;;;;10337513;28;20234;-77
2023/11/18 08:27:06;;;;;;;5.40;5.00;;;8.40;99.90;;;;;;10346974;28;20192;-77
2023/11/18 08:32:26;;;;;;;5.20;4.70;;;8.50;99.90;;;;;;10329628;28;20200;-76
2023/11/18 08:37:48;;;;;;;6.20;5.17;;;8.60;99.90;;;;;;10348323;28;20231;-77
2023/11/18 08:43:09;;;;;;;5.23;4.90;;;8.70;99.90;;;;;;10346791;28;20202;-77
2023/11/18 08:48:30;;;;;;;5.27;4.87;;;8.70;99.90;;;;;;10353756;28;20230;-77
2023/11/18 08:53:54;;;;;;;4.40;4.00;;;8.80;99.90;;;;;;10342744;28;20195;-77
2023/11/18 08:59:16;;;;;;;4.40;4.10;;;8.90;99.90;;;;;;10345012;28;20302;-77
2023/11/18 09:04:37;;;;;;;4.13;3.83;;;9.00;99.90;;;;;;10331262;28;20198;-77
2023/11/18 09:09:59;;;;;;;5.57;3.90;;;9.10;99.90;;;;;;10352645;28;20230;-77
2023/11/18 09:15:22;;;;;;;3.53;3.33;;;9.10;99.90;;;;;;10352993;28;20820;-77
2023/11/18 09:20:43;;;;;;;3.70;3.40;;;9.10;99.90;;;;;;10348833;28;20230;-77
2023/11/18 09:26:07;;;;;;;3.57;3.27;;;9.10;99.90;;;;;;10317728;28;20969;-77
2023/11/18 09:31:28;;;;;;;3.20;3.00;;;9.10;99.90;;;;;;10336730;28;20214;-77
2023/11/18 09:36:48;;;;;;;3.30;3.00;;;9.10;99.90;;;;;;10327351;28;20195;-77
2023/11/18 09:42:11;;;;;;;3.20;3.00;;;9.20;99.90;;;;;;10324340;28;20732;-77
2023/11/18 09:47:37;;;;;;;3.23;2.93;;;9.30;99.90;;;;;;10332005;28;20203;-77
2023/11/18 09:53:05;;;;;;;2.77;2.57;;;9.50;99.90;;;;;;10340071;28;20208;-77
2023/11/18 09:58:35;;;;;;;3.33;3.00;;;9.70;99.90;;;;;;10343966;28;20219;-78
2023/11/18 10:03:58;;;;;;;3.80;3.10;;;9.80;99.90;;;;;;10346095;28;20206;-78
2023/11/18 10:09:28;;;;;;;2.60;2.50;;;9.90;99.90;;;;;;10351752;28;20234;-77
2023/11/18 10:14:52;;;;;;;2.60;2.40;;;10.10;99.90;;;;;;10350550;28;20213;-78
2023/11/18 10:20:15;;;;;;;2.43;2.33;;;10.20;99.90;;;;;;10353401;28;20230;-78
2023/11/18 10:25:40;;;;;;;2.37;2.27;;;10.20;99.90;;;;;;10319158;28;20203;-78
2023/11/18 10:31:04;;;;;;;2.57;2.47;;;10.30;99.90;;;;;;10352971;28;20223;-78
2023/11/18 10:36:25;;;;;;;2.60;2.40;;;10.40;99.90;;;;;;10340440;28;20203;-78
2023/11/18 10:41:47;;;;;;;2.50;2.30;;;10.40;99.90;;;;;;10351404;28;20223;-77
2023/11/18 10:47:14;;;;;;;1.90;1.80;;;10.50;99.90;;;;;;10349243;28;20700;-78
2023/11/18 10:52:40;;;;;;;2.47;2.37;;;10.50;99.90;;;;;;10328114;28;20199;-78
2023/11/18 10:58:00;;;;;;;2.30;2.17;;;10.50;99.90;;;;;;10350267;28;20223;-78
2023/11/18 11:03:24;;;;;;;2.93;2.17;;;10.60;99.90;;;;;;10342517;28;20195;-79
2023/11/18 11:08:46;;;;;;;2.40;2.30;;;10.60;99.90;;;;;;10336387;28;20226;-78
2023/11/18 11:14:09;;;;;;;2.03;1.93;;;10.70;99.90;;;;;;10356429;28;20210;-78
2023/11/18 11:19:44;;;;;;;2.20;2.10;;;10.60;99.90;;;;;;10357206;28;20222;-78
2023/11/18 11:25:21;;;;;;;2.57;2.37;;;10.70;99.90;;;;;;10349344;28;20207;-78
2023/11/18 11:30:46;;;;;;;3.47;2.30;;;10.70;99.90;;;;;;10357616;28;20260;-78
2023/11/18 11:36:12;;;;;;;2.10;2.00;;;10.80;99.90;;;;;;10347423;28;20723;-78
2023/11/18 11:41:34;;;;;;;2.33;2.23;;;10.90;99.90;;;;;;10352847;28;20850;-78
2023/11/18 11:46:55;;;;;;;3.53;2.47;;;10.90;99.90;;;;;;10363190;28;20687;-78
2023/11/18 11:52:27;;;;;;;5.73;2.43;;;10.90;99.90;;;;;;10322178;28;20222;-78
2023/11/18 11:57:53;;;;;;;2.33;2.07;;;10.90;99.90;;;;;;10345935;28;20226;-78
2023/11/18 12:03:17;;;;;;;3.10;2.90;;;10.90;99.90;;;;;;10340848;28;20195;-78
2023/11/18 12:08:39;;;;;;;2.17;2.07;;;10.90;99.90;;;;;;10362049;28;20309;-78
2023/11/18 12:14:09;;;;;;;2.43;2.00;;;11.00;99.90;;;;;;10361489;28;20199;-79
2023/11/18 12:19:32;;;;;;;2.60;2.20;;;10.90;99.90;;;;;;10330035;28;20223;-78
2023/11/18 12:25:33;;;;;;;1.70;1.60;;;10.90;99.90;;;;;;10358015;28;20203;-78
2023/11/18 12:31:04;;;;;;;1.70;1.60;;;10.90;99.90;;;;;;10342534;28;20683;-78
2023/11/18 12:37:18;;;;;;;1.97;1.80;;;10.80;99.90;;;;;;10334688;28;20199;-78
2023/11/18 12:43:06;;;;;;;3.90;2.10;;;10.80;99.90;;;;;;10205069;29;20197;-78
2023/11/18 12:48:32;;;;;;;2.60;2.40;;;10.80;99.90;;;;;;10337340;28;20215;-77
2023/11/18 12:53:53;;;;;;;3.70;2.67;;;10.80;99.90;;;;;;10337486;28;20520;-77
2023/11/18 12:59:13;;;;;;;2.50;2.30;;;10.80;99.90;;;;;;10323004;28;20283;-77
2023/11/18 13:04:40;;;;;;;2.27;1.80;;;10.80;99.90;;;;;;10346343;28;20206;-78
2023/11/18 13:10:01;;;;;;;2.30;2.20;;;10.80;99.90;;;;;;10352397;23;20712;-77
2023/11/18 13:15:24;;;;;;;4.83;2.37;;;10.80;99.90;;;;;;10308381;28;20199;-77
2023/11/18 13:20:57;;;;;;;5.33;3.10;;;10.70;99.90;;;;;;10299843;28;20645;-77
2023/11/18 13:26:19;;;;;;;3.20;2.40;;;10.70;99.90;;;;;;10330405;28;20199;-77
2023/11/18 13:31:40;;;;;;;2.53;2.33;;;10.70;99.90;;;;;;10306378;28;20254;-76
2023/11/18 13:37:03;;;;;;;2.97;2.70;;;10.60;99.90;;;;;;10314899;28;20210;-77
2023/11/18 13:42:26;;;;;;;2.47;2.33;;;10.60;99.90;;;;;;10323234;28;20218;-77
2023/11/18 13:47:52;;;;;;;3.30;2.83;;;10.60;99.90;;;;;;10324873;28;20712;-77
2023/11/18 13:53:15;;;;;;;2.47;2.20;;;10.60;99.90;;;;;;10325393;28;20199;-77
2023/11/18 13:58:38;;;;;;;3.70;2.20;;;10.60;99.90;;;;;;10325120;28;20619;-76
2023/11/18 14:04:04;;;;;;;2.87;2.57;;;10.60;99.90;;;;;;10331140;28;20672;-77
2023/11/18 14:09:26;;;;;;;4.50;3.10;;;10.60;99.90;;;;;;10320297;28;20256;-77
2023/11/18 14:14:49;;;;;;;4.00;3.30;;;10.60;99.90;;;;;;10327498;28;20195;-77
2023/11/18 14:20:13;;;;;;;2.47;2.37;;;10.60;99.90;;;;;;10324436;28;20230;-77
2023/11/18 14:25:35;;;;;;;3.03;2.50;;;10.60;99.90;;;;;;10306431;28;20207;-77
2023/11/18 14:30:55;;;;;;;3.33;2.97;;;10.60;99.90;;;;;;10320577;28;20309;-77
2023/11/18 14:36:16;;;;;;;4.10;3.17;;;10.60;99.90;;;;;;10292199;28;20203;-77
2023/11/18 14:41:38;;;;;;;3.57;3.27;;;10.50;99.90;;;;;;10320288;28;20310;-77
2023/11/18 14:47:00;;;;;;;3.33;3.03;;;10.50;99.90;;;;;;10322114;28;20202;-76
2023/11/18 14:52:20;;;;;;;5.00;4.03;;;10.50;99.90;;;;;;10322503;28;20647;-77
2023/11/18 14:57:43;;;;;;;3.10;2.83;;;10.40;99.90;;;;;;10322797;28;20203;-76
2023/11/18 15:03:05;;;;;;;4.30;3.90;;;10.30;99.90;;;;;;10322852;28;20691;-77
2023/11/18 15:08:26;;;;;;;3.50;3.20;;;10.30;99.90;;;;;;10308571;28;20707;-76
2023/11/18 15:13:48;;;;;;;4.10;3.80;;;10.30;99.90;;;;;;10320981;28;20584;-76
2023/11/18 15:19:08;;;;;;;5.00;3.60;;;10.30;99.90;;;;;;10324689;28;20709;-77
2023/11/18 15:24:32;;;;;;;4.50;4.20;;;10.30;99.90;;;;;;10324847;28;20214;-76
2023/11/18 15:29:54;;;;;;;4.50;4.10;;;10.30;99.90;;;;;;10325441;28;20734;-77
2023/11/18 15:35:16;;;;;;;5.50;4.00;;;10.30;99.90;;;;;;10316177;28;20620;-76
2023/11/18 15:40:37;;;;;;;6.87;4.20;;;10.30;99.90;;;;;;10328082;28;20223;-77
2023/11/18 15:45:59;;;;;;;3.57;3.27;;;10.30;99.90;;;;;;10325236;28;20199;-77
2023/11/18 15:51:21;;;;;;;4.63;4.20;;;10.30;99.90;;;;;;10299893;28;20224;-76
2023/11/18 15:56:42;;;;;;;6.93;4.33;;;10.20;99.90;;;;;;10329616;28;20195;-76
2023/11/18 16:02:05;;;;;;;4.83;4.37;;;10.20;99.90;;;;;;10329685;28;20317;-76
2023/11/18 16:07:25;;;;;;;4.20;3.80;;;10.20;99.90;;;;;;10330779;28;20199;-76
2023/11/18 16:12:47;;;;;;;6.90;4.60;;;10.20;99.90;;;;;;10305284;28;20260;-76
2023/11/18 16:18:09;;;;;;;4.00;3.60;;;10.20;99.90;;;;;;10329452;28;20210;-76
2023/11/18 16:23:34;;;;;;;5.50;4.50;;;10.10;99.90;;;;;;10331187;28;20211;-76
2023/11/18 16:28:57;;;;;;;3.90;3.60;;;10.10;99.90;;;;;;10331902;28;20231;-76
2023/11/18 16:34:19;;;;;;;7.47;5.13;;;10.10;99.90;;;;;;10309889;28;20590;-76
2023/11/18 16:39:40;;;;;;;4.07;3.77;;;10.10;99.90;;;;;;10321267;28;20231;-76
2023/11/18 16:45:01;;;;;;;5.00;4.60;;;10.20;99.90;;;;;;10325761;28;20203;-76
2023/11/18 16:50:24;;;;;;;5.70;4.53;;;10.10;99.90;;;;;;10305071;28;20643;-76
2023/11/18 16:55:44;;;;;;;5.00;4.50;;;10.20;99.90;;;;;;10327050;28;20215;-76
2023/11/18 17:01:06;;;;;;;4.47;3.80;;;10.10;99.90;;;;;;10298380;28;20314;-77
2023/11/18 17:06:28;;;;;;;4.50;4.10;;;10.10;99.90;;;;;;10316273;28;20681;-76
2023/11/18 17:11:49;;;;;;;4.20;3.90;;;10.10;99.90;;;;;;10328521;28;20700;-76
2023/11/18 17:17:10;;;;;;;5.33;4.60;;;10.10;99.90;;;;;;10329424;28;20202;-76
2023/11/18 17:22:32;;;;;;;6.67;5.97;;;10.10;99.90;;;;;;10309133;28;20232;-76
2023/11/18 17:27:53;;;;;;;4.70;4.30;;;10.10;99.90;;;;;;10330052;28;20203;-76
2023/11/18 17:33:15;;;;;;;5.13;3.80;;;10.10;99.90;;;;;;10323419;28;20196;-76
2023/11/18 17:38:37;;;;;;;4.33;3.57;;;10.10;99.90;;;;;;10303884;28;20305;-76
2023/11/18 17:43:57;;;;;;;3.73;3.43;;;10.10;99.90;;;;;;10316347;28;21002;-76
2023/11/18 17:49:18;;;;;;;5.00;3.43;;;10.10;99.90;;;;;;10325241;28;20219;-76
2023/11/18 17:54:40;;;;;;;4.23;3.87;;;10.10;99.90;;;;;;10325465;28;20210;-76
2023/11/18 18:00:01;;;;;;;3.40;3.10;;;10.10;99.90;;;;;;10310695;28;20223;-76
2023/11/18 18:05:22;;;;;;;6.20;4.43;;;10.10;99.90;;;;;;10318379;28;20203;-76
2023/11/18 18:10:44;;;;;;;2.90;2.70;;;10.00;99.90;;;;;;10303700;28;20223;-76
2023/11/18 18:16:06;;;;;;;3.00;2.80;;;9.90;99.90;;;;;;10322053;28;20203;-76
2023/11/18 18:21:26;;;;;;;4.10;3.70;;;9.90;99.90;;;;;;10321207;28;20227;-76
2023/11/18 18:26:48;;;;;;;3.80;3.10;;;9.90;99.90;;;;;;10320781;28;20198;-76
2023/11/18 18:32:10;;;;;;;3.07;2.77;;;9.90;99.90;;;;;;10316189;28;20727;-76
2023/11/18 18:37:30;;;;;;;3.73;3.37;;;10.00;99.90;;;;;;10319395;28;20684;-76
2023/11/18 18:42:52;;;;;;;2.70;2.50;;;10.00;99.90;;;;;;10312125;28;20697;-76
2023/11/18 18:48:13;;;;;;;2.83;2.63;;;10.00;99.90;;;;;;10321099;28;20259;-75
2023/11/18 18:53:34;;;;;;;2.93;2.70;;;10.00;99.90;;;;;;10301308;28;20207;-76
2023/11/18 18:58:56;;;;;;;3.80;2.80;;;10.00;99.90;;;;;;10295055;28;20306;-76
2023/11/18 19:04:17;;;;;;;2.97;2.77;;;9.90;99.90;;;;;;10309641;28;20208;-77
2023/11/18 19:09:37;;;;;;;3.40;3.17;;;9.90;99.90;;;;;;10314653;28;20223;-76
2023/11/18 19:15:03;;;;;;;3.93;3.63;;;9.90;99.90;;;;;;10318235;28;20207;-76
2023/11/18 19:20:24;;;;;;;5.43;4.20;;;9.80;99.90;;;;;;10322139;28;20226;-75
2023/11/18 19:25:44;;;;;;;4.40;4.03;;;9.80;99.90;;;;;;10321752;28;20207;-76
2023/11/18 19:31:07;;;;;;;6.73;5.00;;;9.70;99.90;;;;;;10322790;28;20724;-76
2023/11/18 19:36:28;;;;;;;5.83;4.87;;;9.70;99.90;;;;;;10300387;28;20206;-75
2023/11/18 19:41:48;;;;;;;6.10;5.60;;;9.60;99.90;;;;;;10315328;28;20707;-75
2023/11/18 19:47:11;;;;;;;6.50;6.00;;;9.40;99.90;;;;;;10292727;28;20191;-74
2023/11/18 19:52:31;;;;;;;6.77;6.27;;;9.30;99.90;;;;;;10314653;28;20219;-74
2023/11/18 19:57:52;;;;;;;7.03;6.47;;;9.20;99.90;;;;;;10315514;28;20290;-74
2023/11/18 20:03:15;;;;;;;6.73;6.30;;;9.10;99.90;;;;;;10313931;28;20761;-74
2023/11/18 20:08:35;;;;;;;6.63;6.13;;;9.00;99.90;;;;;;10315341;28;20318;-74
2023/11/18 20:13:55;;;;;;;7.80;7.20;;;8.90;99.90;;;;;;10319840;28;20246;-74
2023/11/18 20:19:20;;;;;;;8.67;7.77;;;9.00;99.90;;;;;;10319288;28;20242;-75
2023/11/18 20:24:40;;;;;;;6.10;5.63;;;9.00;99.90;;;;;;10320263;28;20691;-75
2023/11/18 20:30:01;;;;;;;6.40;5.30;;;9.00;99.90;;;;;;10328586;28;20222;-76
2023/11/18 20:35:24;;;;;;;4.30;4.00;;;8.90;99.90;;;;;;10321564;28;20265;-76
2023/11/18 20:40:46;;;;;;;3.80;3.50;;;9.00;99.90;;;;;;10322055;28;20227;-76
2023/11/18 20:46:11;;;;;;;6.70;6.00;;;9.00;99.90;;;;;;10311737;28;20199;-77
2023/11/18 20:51:34;;;;;;;4.37;3.50;;;9.00;99.90;;;;;;10317773;28;20219;-77
2023/11/18 20:56:55;;;;;;;3.50;3.30;;;9.10;99.90;;;;;;10312709;28;20672;-76
2023/11/18 21:02:16;;;;;;;3.23;3.03;;;9.20;99.90;;;;;;10315899;28;20223;-75
2023/11/18 21:07:38;;;;;;;3.30;3.10;;;9.30;99.90;;;;;;10305516;28;20198;-76
2023/11/18 21:12:59;;;;;;;3.50;3.20;;;9.40;99.90;;;;;;10324941;28;20574;-76
2023/11/18 21:18:20;;;;;;;3.47;3.20;;;9.50;99.90;;;;;;10326190;28;20223;-76
2023/11/18 21:23:42;;;;;;;3.13;2.93;;;9.60;99.90;;;;;;10316610;28;20226;-75
2023/11/18 21:29:02;;;;;;;2.97;2.77;;;9.80;99.90;;;;;;10316786;28;20218;-76
2023/11/18 21:34:23;;;;;;;3.17;2.97;;;9.80;99.90;;;;;;10306675;28;20237;-76
2023/11/18 21:39:45;;;;;;;3.40;3.20;;;9.90;99.90;;;;;;10307908;28;20215;-76
2023/11/18 21:45:07;;;;;;;2.93;2.73;;;10.00;99.90;;;;;;10296951;28;20572;-75
2023/11/18 21:50:28;;;;;;;3.40;3.20;;;10.10;99.90;;;;;;10308482;28;20713;-75
2023/11/18 21:55:54;;;;;;;3.30;3.00;;;10.20;99.90;;;;;;10289395;28;20243;-75
2023/11/18 22:01:14;;;;;;;2.80;2.70;;;10.20;99.90;;;;;;10282303;28;20729;-76
2023/11/18 22:06:35;;;;;;;2.93;2.73;;;10.20;99.90;;;;;;10322732;28;20329;-75
2023/11/18 22:11:57;;;;;;;2.60;2.40;;;10.30;99.90;;;;;;10306101;28;20235;-76
2023/11/18 22:17:18;;;;;;;3.40;3.10;;;10.30;99.90;;;;;;10325372;28;20216;-75
2023/11/18 22:22:38;;;;;;;3.43;3.23;;;10.30;99.90;;;;;;10300427;28;20309;-75
2023/11/18 22:28:02;;;;;;;3.17;2.97;;;10.30;99.90;;;;;;10311251;28;20211;-75
2023/11/18 22:33:23;;;;;;;6.40;6.00;;;10.20;99.90;;;;;;10298833;28;20249;-75
2023/11/18 22:38:43;;;;;;;6.07;5.77;;;10.00;99.90;;;;;;10322240;28;20219;-76
2023/11/18 22:44:06;;;;;;;7.63;7.23;;;9.80;99.90;;;;;;10302612;28;20231;-75
2023/11/18 22:49:28;;;;;;;7.50;7.00;;;9.70;99.90;;;;;;10307813;28;20227;-74
2023/11/18 22:54:49;;;;;;;7.47;6.97;;;9.60;99.90;;;;;;10290164;28;20578;-76
2023/11/18 23:00:15;;;;;;;8.50;8.00;;;9.60;99.90;;;;;;10314833;28;20227;-76
2023/11/18 23:05:39;;;;;;;8.43;7.97;;;9.50;99.90;;;;;;10302049;28;20285;-76
2023/11/18 23:11:00;;;;;;;8.27;7.77;;;9.50;99.90;;;;;;10323271;28;20223;-76
2023/11/18 23:16:23;;;;;;;7.60;7.20;;;9.50;99.90;;;;;;10318441;28;20697;-76
2023/11/18 23:21:44;;;;;;;8.57;8.17;;;9.50;99.90;;;;;;10303367;28;20705;-75
2023/11/18 23:27:06;;;;;;;4.70;4.50;;;9.50;99.90;;;;;;10310892;28;20195;-75
2023/11/18 23:32:28;;;;;;;8.60;7.83;;;9.60;99.90;;;;;;10326940;28;20309;-74
2023/11/18 23:37:51;;;;;;;10.67;7.33;;;9.50;99.90;;;;;;10318083;28;20199;-75
2023/11/18 23:43:12;;;;;;;8.63;8.10;;;9.50;99.90;;;;;;10325102;28;20684;-75
2023/11/18 23:48:35;;;;;;;10.07;9.37;;;9.50;99.90;;;;;;10288114;28;20228;-75
2023/11/18 23:53:56;;;;;;;9.00;8.50;;;9.50;99.90;;;;;;10324623;28;20196;-75
2023/11/18 23:59:17;;;;;;;9.80;9.20;;;9.60;99.90;;;;;;10300153;28;20222;-74
